Tres Passos, Brazil
Current Conditions -  °F | °C
As of 9:00 PM on Tuesday 21 Oct 2014 (Local Time) from SBCH Reporting Station
Clear Clear  
Wind Chill: 72°   Ceiling: Unl
Heat Index: 72°   Visibility: 6mi
Dew Point: 50°   Wind: 9mph
Humidity: 46%   Direction: 130°SE
Pressure: 30.09"   Gusts: NA
Location:  27.46°S, 53.93°W
Report Text: SBCH 212300Z 13008KT CAVOK 22/10 Q1019
Loading
Personal Weather Stations






























Interactive Weather Map
Tropical Storm Tracking
New forecast layout! Learn more

10-Day Weather Forecast

Advertisements
Track Severe Weather on mobile